sensor_id;sensor_type;location;lat;lon;timestamp;pressure;altitude;pressure_sealevel;temperature;humidity
51178;BME280;37243;49.814;8.652;2022-12-20T00:01:34;100721.56;;;25.94;26.27
51178;BME280;37243;49.814;8.652;2022-12-20T00:04:03;100711.38;;;25.94;26.22
51178;BME280;37243;49.814;8.652;2022-12-20T00:06:33;100707.03;;;25.93;26.25
51178;BME280;37243;49.814;8.652;2022-12-20T00:09:06;100702.34;;;25.94;26.46
51178;BME280;37243;49.814;8.652;2022-12-20T00:15:13;100691.34;;;25.94;26.37
51178;BME280;37243;49.814;8.652;2022-12-20T00:21:04;100690.03;;;25.91;26.35
51178;BME280;37243;49.814;8.652;2022-12-20T00:23:45;100685.31;;;25.92;26.22
51178;BME280;37243;49.814;8.652;2022-12-20T00:29:58;100669.16;;;25.90;25.97
51178;BME280;37243;49.814;8.652;2022-12-20T00:32:50;100668.06;;;25.91;26.26
51178;BME280;37243;49.814;8.652;2022-12-20T00:38:39;100676.28;;;25.91;26.47
51178;BME280;37243;49.814;8.652;2022-12-20T00:41:10;100675.47;;;25.91;25.79
51178;BME280;37243;49.814;8.652;2022-12-20T00:43:39;100671.59;;;25.92;26.28
51178;BME280;37243;49.814;8.652;2022-12-20T00:46:11;100672.72;;;25.91;26.54
51178;BME280;37243;49.814;8.652;2022-12-20T00:48:40;100669.97;;;25.91;26.15
51178;BME280;37243;49.814;8.652;2022-12-20T00:51:11;100675.47;;;25.91;26.22
51178;BME280;37243;49.814;8.652;2022-12-20T01:06:13;100673.84;;;25.90;26.15
51178;BME280;37243;49.814;8.652;2022-12-20T01:08:41;100674.66;;;25.90;26.25
51178;BME280;37243;49.814;8.652;2022-12-20T01:11:13;100689.53;;;25.89;26.24
51178;BME280;37243;49.814;8.652;2022-12-20T01:13:43;100691.97;;;25.91;25.81
51178;BME280;37243;49.814;8.652;2022-12-20T01:16:15;100688.06;;;25.92;26.09
51178;BME280;37243;49.814;8.652;2022-12-20T01:18:44;100684.53;;;25.91;25.95
51178;BME280;37243;49.814;8.652;2022-12-20T01:21:17;100678.22;;;25.91;26.55
51178;BME280;37243;49.814;8.652;2022-12-20T01:23:46;100676.28;;;25.91;26.17
51178;BME280;37243;49.814;8.652;2022-12-20T01:26:16;100671.59;;;25.92;26.23
51178;BME280;37243;49.814;8.652;2022-12-20T01:38:22;100662.84;;;25.90;26.45
51178;BME280;37243;49.814;8.652;2022-12-20T01:40:51;100648.81;;;25.91;25.81
51178;BME280;37243;49.814;8.652;2022-12-20T01:43:20;100644.44;;;25.90;26.13
51178;BME280;37243;49.814;8.652;2022-12-20T01:45:49;100634.25;;;25.91;26.29
51178;BME280;37243;49.814;8.652;2022-12-20T01:48:21;100637.00;;;25.91;26.24
51178;BME280;37243;49.814;8.652;2022-12-20T01:50:53;100639.75;;;25.91;26.14
51178;BME280;37243;49.814;8.652;2022-12-20T01:56:56;100651.84;;;25.90;26.13
51178;BME280;37243;49.814;8.652;2022-12-20T01:59:25;100651.84;;;25.90;25.85
51178;BME280;37243;49.814;8.652;2022-12-20T02:01:57;100655.41;;;25.90;25.97
51178;BME280;37243;49.814;8.652;2022-12-20T02:04:59;100643.31;;;25.91;26.53
51178;BME280;37243;49.814;8.652;2022-12-20T02:08:16;100635.84;;;25.92;25.49
51178;BME280;37243;49.814;8.652;2022-12-20T02:11:01;100634.56;;;25.89;26.61
51178;BME280;37243;49.814;8.652;2022-12-20T02:14:21;100646.34;;;25.90;25.89
51178;BME280;37243;49.814;8.652;2022-12-20T02:17:11;100642.50;;;25.91;25.84
51178;BME280;37243;49.814;8.652;2022-12-20T02:23:19;100618.88;;;25.90;26.22
51178;BME280;37243;49.814;8.652;2022-12-20T02:26:04;100603.19;;;25.90;25.89
51178;BME280;37243;49.814;8.652;2022-12-20T02:32:07;100598.53;;;25.91;26.08
51178;BME280;37243;49.814;8.652;2022-12-20T02:41:02;100574.09;;;25.89;26.19
51178;BME280;37243;49.814;8.652;2022-12-20T02:49:57;100568.59;;;25.89;26.58
51178;BME280;37243;49.814;8.652;2022-12-20T02:52:25;100571.84;;;25.91;25.89
51178;BME280;37243;49.814;8.652;2022-12-20T02:54:56;100571.03;;;25.91;25.93
51178;BME280;37243;49.814;8.652;2022-12-20T02:57:28;100571.03;;;25.91;25.93
51178;BME280;37243;49.814;8.652;2022-12-20T03:07:00;100576.84;;;25.89;25.87
51178;BME280;37243;49.814;8.652;2022-12-20T03:09:30;100577.34;;;25.91;26.21
51178;BME280;37243;49.814;8.652;2022-12-20T03:12:36;100575.72;;;25.90;26.17
51178;BME280;37243;49.814;8.652;2022-12-20T03:15:39;100573.28;;;25.89;26.15
51178;BME280;37243;49.814;8.652;2022-12-20T03:18:34;100576.84;;;25.89;26.43
51178;BME280;37243;49.814;8.652;2022-12-20T03:24:22;100571.03;;;25.91;26.23
51178;BME280;37243;49.814;8.652;2022-12-20T03:26:57;100549.84;;;25.91;26.05
51178;BME280;37243;49.814;8.652;2022-12-20T03:29:31;100557.28;;;25.91;26.54
51178;BME280;37243;49.814;8.652;2022-12-20T03:33:05;100549.84;;;25.91;26.51
51178;BME280;37243;49.814;8.652;2022-12-20T03:37:53;100551.78;;;25.91;25.93
51178;BME280;37243;49.814;8.652;2022-12-20T03:40:46;100547.09;;;25.91;25.86
51178;BME280;37243;49.814;8.652;2022-12-20T03:43:23;100542.41;;;25.92;26.29
51178;BME280;37243;49.814;8.652;2022-12-20T03:45:59;100540.47;;;25.92;26.35
51178;BME280;37243;49.814;8.652;2022-12-20T03:48:37;100544.03;;;25.93;26.00
51178;BME280;37243;49.814;8.652;2022-12-20T03:51:10;100534.97;;;25.92;26.63
51178;BME280;37243;49.814;8.652;2022-12-20T03:53:50;100524.44;;;25.94;26.35
51178;BME280;37243;49.814;8.652;2022-12-20T03:56:31;100530.75;;;25.95;26.31
51178;BME280;37243;49.814;8.652;2022-12-20T03:59:16;100529.16;;;25.94;25.82
51178;BME280;37243;49.814;8.652;2022-12-20T04:02:05;100531.91;;;25.94;26.11
51178;BME280;37243;49.814;8.652;2022-12-20T04:04:37;100527.19;;;25.94;26.60
51178;BME280;37243;49.814;8.652;2022-12-20T04:07:12;100532.69;;;25.94;26.18
51178;BME280;37243;49.814;8.652;2022-12-20T04:12:39;100563.75;;;25.95;25.78
51178;BME280;37243;49.814;8.652;2022-12-20T04:15:10;100557.44;;;25.94;26.17
51178;BME280;37243;49.814;8.652;2022-12-20T04:17:51;100561.00;;;25.95;26.36
51178;BME280;37243;49.814;8.652;2022-12-20T04:23:18;100546.13;;;25.96;25.84
51178;BME280;37243;49.814;8.652;2022-12-20T04:26:03;100544.50;;;25.95;26.53
51178;BME280;37243;49.814;8.652;2022-12-20T04:29:46;100542.25;;;25.97;25.84
51178;BME280;37243;49.814;8.652;2022-12-20T04:31:48;100535.13;;;25.96;25.95
51178;BME280;37243;49.814;8.652;2022-12-20T04:34:24;100540.63;;;25.96;25.93
51178;BME280;37243;49.814;8.652;2022-12-20T04:37:22;100522.50;;;25.95;25.87
51178;BME280;37243;49.814;8.652;2022-12-20T04:39:59;100513.16;;;25.96;25.95
51178;BME280;37243;49.814;8.652;2022-12-20T04:43:02;100506.03;;;25.95;26.34
51178;BME280;37243;49.814;8.652;2022-12-20T04:45:36;100503.78;;;25.97;26.22
51178;BME280;37243;49.814;8.652;2022-12-20T04:48:14;100514.78;;;25.97;26.29
51178;BME280;37243;49.814;8.652;2022-12-20T04:50:46;100499.88;;;25.98;26.67
51178;BME280;37243;49.814;8.652;2022-12-20T04:53:21;100494.38;;;25.98;26.63
51178;BME280;37243;49.814;8.652;2022-12-20T04:56:11;100491.63;;;25.98;26.40
51178;BME280;37243;49.814;8.652;2022-12-20T04:58:45;100498.75;;;25.99;26.12
51178;BME280;37243;49.814;8.652;2022-12-20T05:01:34;100507.81;;;26.00;26.11
51178;BME280;37243;49.814;8.652;2022-12-20T05:04:29;100500.69;;;25.99;26.13
51178;BME280;37243;49.814;8.652;2022-12-20T05:07:15;100512.50;;;25.99;26.65
51178;BME280;37243;49.814;8.652;2022-12-20T05:09:48;100513.81;;;26.02;26.71
51178;BME280;37243;49.814;8.652;2022-12-20T05:12:29;100518.47;;;26.01;26.70
51178;BME280;37243;49.814;8.652;2022-12-20T05:15:02;100513.81;;;26.02;26.66
51178;BME280;37243;49.814;8.652;2022-12-20T05:17:44;100502.81;;;26.02;26.63
51178;BME280;37243;49.814;8.652;2022-12-20T05:20:26;100503.63;;;26.02;26.18
51178;BME280;37243;49.814;8.652;2022-12-20T05:22:58;100493.44;;;26.03;26.80
51178;BME280;37243;49.814;8.652;2022-12-20T05:25:53;100492.63;;;26.02;26.13
51178;BME280;37243;49.814;8.652;2022-12-20T05:28:34;100495.38;;;26.02;26.39
51178;BME280;37243;49.814;8.652;2022-12-20T05:31:10;100497.78;;;26.04;26.39
51178;BME280;37243;49.814;8.652;2022-12-20T05:33:43;100482.09;;;26.04;26.19
51178;BME280;37243;49.814;8.652;2022-12-20T05:36:16;100493.91;;;26.05;26.77
51178;BME280;37243;49.814;8.652;2022-12-20T05:38:56;100487.59;;;26.04;26.79
51178;BME280;37243;49.814;8.652;2022-12-20T05:41:30;100492.28;;;26.04;26.48
51178;BME280;37243;49.814;8.652;2022-12-20T05:44:06;100486.47;;;26.05;26.44
51178;BME280;37243;49.814;8.652;2022-12-20T05:46:43;100495.84;;;26.04;26.22
51178;BME280;37243;49.814;8.652;2022-12-20T05:49:23;100493.09;;;26.04;26.16
51178;BME280;37243;49.814;8.652;2022-12-20T05:52:12;100492.63;;;26.02;26.66
51178;BME280;37243;49.814;8.652;2022-12-20T05:54:51;100493.09;;;26.04;26.83
51178;BME280;37243;49.814;8.652;2022-12-20T05:57:36;100481.28;;;26.04;26.56
51178;BME280;37243;49.814;8.652;2022-12-20T06:01:25;100493.91;;;26.05;26.57
51178;BME280;37243;49.814;8.652;2022-12-20T06:07:05;100476.59;;;26.04;26.93
51178;BME280;37243;49.814;8.652;2022-12-20T06:09:44;100488.41;;;26.05;26.68
51178;BME280;37243;49.814;8.652;2022-12-20T06:15:10;100489.53;;;26.04;26.48
51178;BME280;37243;49.814;8.652;2022-12-20T06:17:57;100484.38;;;26.02;26.90
51178;BME280;37243;49.814;8.652;2022-12-20T06:23:27;100465.94;;;26.03;27.11
51178;BME280;37243;49.814;8.652;2022-12-20T06:26:13;100461.25;;;26.03;26.30
51178;BME280;37243;49.814;8.652;2022-12-20T06:29:02;100461.25;;;26.03;26.63
51178;BME280;37243;49.814;8.652;2022-12-20T06:31:47;100458.50;;;26.03;26.84
51178;BME280;37243;49.814;8.652;2022-12-20T06:34:15;100445.06;;;26.02;26.55
51178;BME280;37243;49.814;8.652;2022-12-20T06:36:43;100447.53;;;26.03;26.27
51178;BME280;37243;49.814;8.652;2022-12-20T06:39:14;100444.78;;;26.03;26.92
51178;BME280;37243;49.814;8.652;2022-12-20T06:41:42;100442.03;;;26.03;26.83
51178;BME280;37243;49.814;8.652;2022-12-20T06:44:11;100431.34;;;26.02;26.79
51178;BME280;37243;49.814;8.652;2022-12-20T06:47:19;100428.91;;;26.00;27.17
51178;BME280;37243;49.814;8.652;2022-12-20T07:00:41;100455.09;;;25.98;26.40
51178;BME280;37243;49.814;8.652;2022-12-20T07:03:41;100470.47;;;25.99;26.54
51178;BME280;37243;49.814;8.652;2022-12-20T07:06:22;100478.72;;;25.99;26.43
51178;BME280;37243;49.814;8.652;2022-12-20T07:09:25;100486.66;;;26.00;26.58
51178;BME280;37243;49.814;8.652;2022-12-20T07:12:02;100496.84;;;26.00;27.15
51178;BME280;37243;49.814;8.652;2022-12-20T07:14:45;100496.84;;;26.00;27.03
51178;BME280;37243;49.814;8.652;2022-12-20T07:17:33;100491.34;;;26.00;26.77
51178;BME280;37243;49.814;8.652;2022-12-20T07:45:58;100434.25;;;25.97;26.53
51178;BME280;37243;49.814;8.652;2022-12-20T08:22:09;100415.84;;;26.14;27.20
51178;BME280;37243;49.814;8.652;2022-12-20T08:24:37;100410.34;;;26.14;26.58
51178;BME280;37243;49.814;8.652;2022-12-20T08:27:14;100405.47;;;26.11;26.87
51178;BME280;37243;49.814;8.652;2022-12-20T08:29:43;100409.34;;;26.10;27.03
51178;BME280;37243;49.814;8.652;2022-12-20T08:32:12;100405.28;;;26.08;27.04
51178;BME280;37243;49.814;8.652;2022-12-20T08:38:06;100406.28;;;26.03;26.73
51178;BME280;37243;49.814;8.652;2022-12-20T08:40:34;100403.53;;;26.03;26.80
51178;BME280;37243;49.814;8.652;2022-12-20T08:43:05;100403.84;;;26.02;27.03
51178;BME280;37243;49.814;8.652;2022-12-20T08:45:44;100398.81;;;26.04;27.24
51178;BME280;37243;49.814;8.652;2022-12-20T08:48:12;100394.13;;;26.04;26.65
51178;BME280;37243;49.814;8.652;2022-12-20T08:50:55;100386.38;;;26.06;27.31
51178;BME280;37243;49.814;8.652;2022-12-20T08:53:28;100382.97;;;26.09;26.98
51178;BME280;37243;49.814;8.652;2022-12-20T08:56:04;100378.78;;;26.12;26.91
51178;BME280;37243;49.814;8.652;2022-12-20T08:58:33;100384.44;;;26.15;26.90
51178;BME280;37243;49.814;8.652;2022-12-20T09:01:03;100368.91;;;26.19;27.09
51178;BME280;37243;49.814;8.652;2022-12-20T09:03:34;100380.09;;;26.23;26.67
51178;BME280;37243;49.814;8.652;2022-12-20T09:06:05;100382.97;;;26.26;26.72
51178;BME280;37243;49.814;8.652;2022-12-20T09:08:37;100378.44;;;26.30;26.63
51178;BME280;37243;49.814;8.652;2022-12-20T09:11:07;100378.91;;;26.32;26.97
51178;BME280;37243;49.814;8.652;2022-12-20T09:13:36;100380.53;;;26.33;26.86
51178;BME280;37243;49.814;8.652;2022-12-20T09:16:06;100382.81;;;26.31;27.66
51178;BME280;37243;49.814;8.652;2022-12-20T09:18:35;100373.59;;;26.27;28.55
51178;BME280;37243;49.814;8.652;2022-12-20T09:21:05;100369.41;;;26.21;27.84
51178;BME280;37243;49.814;8.652;2022-12-20T09:23:42;100373.75;;;26.14;29.85
51178;BME280;37243;49.814;8.652;2022-12-20T09:26:37;100385.41;;;26.02;29.13
51178;BME280;37243;49.814;8.652;2022-12-20T09:29:23;100390.44;;;26.00;28.78
51178;BME280;37243;49.814;8.652;2022-12-20T09:32:35;100396.06;;;25.95;28.63
51178;BME280;37243;49.814;8.652;2022-12-20T09:35:20;100400.63;;;25.91;27.88
51178;BME280;37243;49.814;8.652;2022-12-20T09:38:07;100410.81;;;25.90;27.88
51178;BME280;37243;49.814;8.652;2022-12-20T09:40:58;100417.75;;;25.88;28.39
51178;BME280;37243;49.814;8.652;2022-12-20T09:43:29;100399.63;;;25.87;27.87
51178;BME280;37243;49.814;8.652;2022-12-20T09:45:58;100398.81;;;25.86;27.90
51178;BME280;37243;49.814;8.652;2022-12-20T09:48:29;100399.63;;;25.87;28.27
51178;BME280;37243;49.814;8.652;2022-12-20T09:51:06;100387.84;;;25.86;27.84
51178;BME280;37243;49.814;8.652;2022-12-20T09:53:47;100388.66;;;25.87;28.53
51178;BME280;37243;49.814;8.652;2022-12-20T09:56:26;100377.47;;;25.83;29.04
51178;BME280;37243;49.814;8.652;2022-12-20T09:59:04;100367.13;;;25.80;28.08
51178;BME280;37243;49.814;8.652;2022-12-20T10:01:52;100358.75;;;25.77;27.97
51178;BME280;37243;49.814;8.652;2022-12-20T10:04:34;100361.34;;;25.73;28.23
51178;BME280;37243;49.814;8.652;2022-12-20T10:07:19;100369.09;;;25.71;28.38
51178;BME280;37243;49.814;8.652;2022-12-20T10:10:01;100361.50;;;25.68;28.57
51178;BME280;37243;49.814;8.652;2022-12-20T10:12:41;100351.47;;;25.64;28.50
51178;BME280;37243;49.814;8.652;2022-12-20T10:18:33;100369.25;;;25.58;28.88
51178;BME280;37243;49.814;8.652;2022-12-20T10:21:11;100354.22;;;25.55;28.72
51178;BME280;37243;49.814;8.652;2022-12-20T10:23:52;100346.31;;;25.54;28.52
51178;BME280;37243;49.814;8.652;2022-12-20T10:26:25;100346.94;;;25.51;28.32
51178;BME280;37243;49.814;8.652;2022-12-20T10:28:56;100345.03;;;25.51;28.56
51178;BME280;37243;49.814;8.652;2022-12-20T10:31:24;100349.19;;;25.49;29.09
51178;BME280;37243;49.814;8.652;2022-12-20T10:33:52;100335.75;;;25.47;28.75
51178;BME280;37243;49.814;8.652;2022-12-20T10:36:24;100345.94;;;25.47;29.10
51178;BME280;37243;49.814;8.652;2022-12-20T10:38:54;100340.44;;;25.47;28.72
51178;BME280;37243;49.814;8.652;2022-12-20T10:41:24;100344.31;;;25.46;29.07
51178;BME280;37243;49.814;8.652;2022-12-20T10:43:58;100344.31;;;25.46;28.72
51178;BME280;37243;49.814;8.652;2022-12-20T10:46:59;100343.53;;;25.45;28.50
51178;BME280;37243;49.814;8.652;2022-12-20T10:49:39;100329.28;;;25.43;28.50
51178;BME280;37243;49.814;8.652;2022-12-20T10:52:12;100332.84;;;25.44;28.58
51178;BME280;37243;49.814;8.652;2022-12-20T10:54:43;100336.41;;;25.44;29.08
51178;BME280;37243;49.814;8.652;2022-12-20T10:57:17;100330.09;;;25.44;28.68
51178;BME280;37243;49.814;8.652;2022-12-20T10:59:51;100326.53;;;25.43;28.95
51178;BME280;37243;49.814;8.652;2022-12-20T11:02:35;100324.13;;;25.42;29.54
51178;BME280;37243;49.814;8.652;2022-12-20T11:05:28;100325.25;;;25.40;29.12
51178;BME280;37243;49.814;8.652;2022-12-20T11:08:24;100310.41;;;25.42;28.93
51178;BME280;37243;49.814;8.652;2022-12-20T11:11:25;100296.19;;;25.39;29.22
51178;BME280;37243;49.814;8.652;2022-12-20T11:14:18;100301.69;;;25.39;28.92
51178;BME280;37243;49.814;8.652;2022-12-20T11:16:52;100293.09;;;25.41;28.91
51178;BME280;37243;49.814;8.652;2022-12-20T11:19:45;100293.09;;;25.41;28.92
51178;BME280;37243;49.814;8.652;2022-12-20T11:22:40;100293.09;;;25.41;29.64
51178;BME280;37243;49.814;8.652;2022-12-20T11:25:24;100292.28;;;25.40;29.24
51178;BME280;37243;49.814;8.652;2022-12-20T11:28:12;100281.31;;;25.40;29.63
51178;BME280;37243;49.814;8.652;2022-12-20T11:30:50;100280.19;;;25.42;28.98
51178;BME280;37243;49.814;8.652;2022-12-20T11:33:34;100272.75;;;25.42;28.92
51178;BME280;37243;49.814;8.652;2022-12-20T11:36:16;100273.06;;;25.40;29.47
51178;BME280;37243;49.814;8.652;2022-12-20T11:39:18;100264.84;;;25.40;29.30
51178;BME280;37243;49.814;8.652;2022-12-20T11:42:28;100260.16;;;25.41;29.38
51178;BME280;37243;49.814;8.652;2022-12-20T11:45:17;100259.81;;;25.42;29.29
51178;BME280;37243;49.814;8.652;2022-12-20T11:51:22;100248.06;;;25.42;29.18
51178;BME280;37243;49.814;8.652;2022-12-20T11:54:00;100257.06;;;25.42;29.48
51178;BME280;37243;49.814;8.652;2022-12-20T12:00:03;100251.09;;;25.40;29.42
51178;BME280;37243;49.814;8.652;2022-12-20T12:02:56;100246.09;;;25.42;29.73
51178;BME280;37243;49.814;8.652;2022-12-20T12:05:34;100236.25;;;25.42;29.60
51178;BME280;37243;49.814;8.652;2022-12-20T12:08:26;100227.19;;;25.41;29.38
51178;BME280;37243;49.814;8.652;2022-12-20T12:11:23;100219.44;;;25.43;29.79
51178;BME280;37243;49.814;8.652;2022-12-20T12:14:21;100207.63;;;25.42;29.20
51178;BME280;37243;49.814;8.652;2022-12-20T12:17:11;100213.13;;;25.42;29.81
51178;BME280;37243;49.814;8.652;2022-12-20T12:22:40;100208.78;;;25.42;29.18
51178;BME280;37243;49.814;8.652;2022-12-20T12:24:01;100200.56;;;25.42;29.40
51178;BME280;37243;49.814;8.652;2022-12-20T12:27:27;100197.00;;;25.41;29.74
51178;BME280;37243;49.814;8.652;2022-12-20T12:29:57;100184.53;;;25.44;29.39
51178;BME280;37243;49.814;8.652;2022-12-20T12:32:53;100193.91;;;25.42;29.22
51178;BME280;37243;49.814;8.652;2022-12-20T12:35:47;100202.16;;;25.42;29.51
51178;BME280;37243;49.814;8.652;2022-12-20T12:39:01;100191.16;;;25.42;29.59
51178;BME280;37243;49.814;8.652;2022-12-20T12:45:39;100199.41;;;25.42;29.33
51178;BME280;37243;49.814;8.652;2022-12-20T12:48:13;100194.41;;;25.45;29.88
51178;BME280;37243;49.814;8.652;2022-12-20T12:50:49;100178.75;;;25.45;29.80
51178;BME280;37243;49.814;8.652;2022-12-20T12:53:20;100176.78;;;25.46;29.69
51178;BME280;37243;49.814;8.652;2022-12-20T12:55:52;100167.75;;;25.45;29.85
51178;BME280;37243;49.814;8.652;2022-12-20T12:58:32;100165.78;;;25.46;29.40
51178;BME280;37243;49.814;8.652;2022-12-20T13:01:10;100165.00;;;25.45;29.48
51178;BME280;37243;49.814;8.652;2022-12-20T13:20:40;100133.13;;;25.70;29.90
51178;BME280;37243;49.814;8.652;2022-12-20T13:23:35;100121.28;;;25.78;29.73
51178;BME280;37243;49.814;8.652;2022-12-20T13:29:26;100149.84;;;25.94;29.17
51178;BME280;37243;49.814;8.652;2022-12-20T13:31:55;100141.06;;;26.01;29.34
51178;BME280;37243;49.814;8.652;2022-12-20T13:34:41;100137.50;;;26.09;29.01
51178;BME280;37243;49.814;8.652;2022-12-20T13:37:50;100138.63;;;26.16;28.75
51178;BME280;37243;49.814;8.652;2022-12-20T13:40:33;100127.09;;;26.23;29.00
51178;BME280;37243;49.814;8.652;2022-12-20T13:43:06;100118.81;;;26.31;28.15
51178;BME280;37243;49.814;8.652;2022-12-20T13:45:38;100126.84;;;26.36;28.76
51178;BME280;37243;49.814;8.652;2022-12-20T13:48:16;100129.09;;;26.43;28.43
51178;BME280;37243;49.814;8.652;2022-12-20T13:50:50;100128.88;;;26.48;28.43
51178;BME280;37243;49.814;8.652;2022-12-20T13:53:30;100127.84;;;26.52;28.33
51178;BME280;37243;49.814;8.652;2022-12-20T13:56:20;100114.38;;;26.60;27.92
51178;BME280;37243;49.814;8.652;2022-12-20T13:59:06;100133.44;;;26.65;27.90
51178;BME280;37243;49.814;8.652;2022-12-20T14:01:48;100136.78;;;26.70;28.41
51178;BME280;37243;49.814;8.652;2022-12-20T14:04:18;100142.44;;;26.74;27.69
51178;BME280;37243;49.814;8.652;2022-12-20T14:06:50;100143.41;;;26.78;27.62
51178;BME280;37243;49.814;8.652;2022-12-20T14:09:43;100144.34;;;26.82;27.86
51178;BME280;37243;49.814;8.652;2022-12-20T14:15:29;100137.97;;;26.90;27.84
51178;BME280;37243;49.814;8.652;2022-12-20T14:18:15;100140.03;;;26.93;27.91
51178;BME280;37243;49.814;8.652;2022-12-20T14:20:54;100137.09;;;26.98;27.78
51178;BME280;37243;49.814;8.652;2022-12-20T14:23:34;100141.94;;;27.01;27.93
51178;BME280;37243;49.814;8.652;2022-12-20T14:26:11;100134.13;;;27.03;27.38
51178;BME280;37243;49.814;8.652;2022-12-20T14:28:41;100123.59;;;27.05;27.61
51178;BME280;37243;49.814;8.652;2022-12-20T14:31:34;100125.19;;;27.06;27.25
51178;BME280;37243;49.814;8.652;2022-12-20T14:34:21;100120.63;;;27.10;27.64
51178;BME280;37243;49.814;8.652;2022-12-20T14:40:21;100106.97;;;27.14;27.34
51178;BME280;37243;49.814;8.652;2022-12-20T14:43:23;100087.69;;;27.14;27.63
51178;BME280;37243;49.814;8.652;2022-12-20T14:46:24;100091.72;;;27.16;27.44
51178;BME280;37243;49.814;8.652;2022-12-20T14:49:20;100097.22;;;27.16;27.32
51178;BME280;37243;49.814;8.652;2022-12-20T14:52:11;100103.22;;;27.18;27.36
51178;BME280;37243;49.814;8.652;2022-12-20T14:54:59;100095.41;;;27.20;27.26
51178;BME280;37243;49.814;8.652;2022-12-20T14:57:57;100091.53;;;27.21;27.19
51178;BME280;37243;49.814;8.652;2022-12-20T15:01:18;100090.72;;;27.21;27.46
51178;BME280;37243;49.814;8.652;2022-12-20T15:04:23;100082.09;;;27.22;26.79
51178;BME280;37243;49.814;8.652;2022-12-20T15:10:23;100080.63;;;27.25;26.73
51178;BME280;37243;49.814;8.652;2022-12-20T15:13:01;100092.13;;;27.27;26.74
51178;BME280;37243;49.814;8.652;2022-12-20T15:15:41;100091.31;;;27.26;26.89
51178;BME280;37243;49.814;8.652;2022-12-20T15:18:20;100084.66;;;27.27;26.81
51178;BME280;37243;49.814;8.652;2022-12-20T15:21:09;100085.13;;;27.29;26.68
51178;BME280;37243;49.814;8.652;2022-12-20T15:23:50;100065.84;;;27.29;27.22
51178;BME280;37243;49.814;8.652;2022-12-20T15:26:52;100068.59;;;27.29;26.57
51178;BME280;37243;49.814;8.652;2022-12-20T15:29:27;100079.25;;;27.31;26.97
51178;BME280;37243;49.814;8.652;2022-12-20T15:32:11;100095.78;;;27.31;27.21
51178;BME280;37243;49.814;8.652;2022-12-20T15:35:01;100090.75;;;27.33;27.12
51178;BME280;37243;49.814;8.652;2022-12-20T15:37:42;100084.91;;;27.34;26.95
51178;BME280;37243;49.814;8.652;2022-12-20T15:40:18;100071.56;;;27.36;27.55
51178;BME280;37243;49.814;8.652;2022-12-20T15:45:59;100075.28;;;27.40;27.18
51178;BME280;37243;49.814;8.652;2022-12-20T15:48:52;100066.69;;;27.42;26.87
51178;BME280;37243;49.814;8.652;2022-12-20T15:51:43;100059.22;;;27.42;27.08
51178;BME280;37243;49.814;8.652;2022-12-20T15:54:23;100059.72;;;27.44;27.34
51178;BME280;37243;49.814;8.652;2022-12-20T15:59:57;100055.78;;;27.45;27.02
51178;BME280;37243;49.814;8.652;2022-12-20T16:02:27;100064.03;;;27.45;27.34
51178;BME280;37243;49.814;8.652;2022-12-20T16:08:04;100048.31;;;27.46;27.42
51178;BME280;37243;49.814;8.652;2022-12-20T16:10:54;100049.13;;;27.46;27.33
51178;BME280;37243;49.814;8.652;2022-12-20T16:14:15;100048.31;;;27.46;27.32
51178;BME280;37243;49.814;8.652;2022-12-20T16:17:01;100053.84;;;27.46;27.21
51178;BME280;37243;49.814;8.652;2022-12-20T16:19:54;100061.28;;;27.45;27.70
51178;BME280;37243;49.814;8.652;2022-12-20T16:22:47;100063.25;;;27.45;27.85
51178;BME280;37243;49.814;8.652;2022-12-20T16:29:26;100067.16;;;27.44;27.31
51178;BME280;37243;49.814;8.652;2022-12-20T16:32:47;100080.94;;;27.44;27.99
51178;BME280;37243;49.814;8.652;2022-12-20T16:35:52;100073.00;;;27.42;27.40
51178;BME280;37243;49.814;8.652;2022-12-20T16:39:19;100078.50;;;27.42;28.02
51178;BME280;37243;49.814;8.652;2022-12-20T16:48:23;100079.69;;;27.41;27.34
51178;BME280;37243;49.814;8.652;2022-12-20T16:51:26;100074.16;;;27.41;27.73
51178;BME280;37243;49.814;8.652;2022-12-20T16:54:33;100069.75;;;27.40;27.60
51178;BME280;37243;49.814;8.652;2022-12-20T16:57:16;100061.50;;;27.40;27.38
51178;BME280;37243;49.814;8.652;2022-12-20T17:00:39;100054.88;;;27.41;27.57
51178;BME280;37243;49.814;8.652;2022-12-20T17:03:27;100058.41;;;27.42;27.60
51178;BME280;37243;49.814;8.652;2022-12-20T17:06:09;100063.16;;;27.41;26.87
51178;BME280;37243;49.814;8.652;2022-12-20T17:08:53;100060.84;;;27.43;27.13
51178;BME280;37243;49.814;8.652;2022-12-20T17:11:32;100057.28;;;27.43;27.42
51178;BME280;37243;49.814;8.652;2022-12-20T17:14:23;100051.78;;;27.43;27.00
51178;BME280;37243;49.814;8.652;2022-12-20T17:17:23;100060.03;;;27.43;27.53
51178;BME280;37243;49.814;8.652;2022-12-20T17:19:56;100057.28;;;27.43;27.55
51178;BME280;37243;49.814;8.652;2022-12-20T17:26:02;100064.72;;;27.42;27.08
51178;BME280;37243;49.814;8.652;2022-12-20T17:28:57;100041.56;;;27.43;26.45
51178;BME280;37243;49.814;8.652;2022-12-20T17:37:47;100029.41;;;27.44;26.73
51178;BME280;37243;49.814;8.652;2022-12-20T17:43:26;100037.66;;;27.44;26.75
51178;BME280;37243;49.814;8.652;2022-12-20T17:46:28;100021.59;;;27.46;27.37
51178;BME280;37243;49.814;8.652;2022-12-20T17:49:21;100020.31;;;27.44;27.02
51178;BME280;37243;49.814;8.652;2022-12-20T17:52:40;100021.91;;;27.45;27.42
51178;BME280;37243;49.814;8.652;2022-12-20T17:55:24;100013.31;;;27.46;27.32
51178;BME280;37243;49.814;8.652;2022-12-20T17:58:16;100010.56;;;27.46;26.64
51178;BME280;37243;49.814;8.652;2022-12-20T18:01:22;100016.06;;;27.46;27.30
51178;BME280;37243;49.814;8.652;2022-12-20T18:04:28;100026.28;;;27.46;27.32
51178;BME280;37243;49.814;8.652;2022-12-20T18:07:01;100034.22;;;27.47;26.99